Impacts TAF Board
For situational awareness. Not to be used for flight planning purposes.
IDs:

KMCO - Orlando Intl, FL, US

Issued at 1453 UTC 03 Jun 2020
Updated at 1617 UTC 03 Jun 2020
Potential Impact None Slight Moderate High
Time<<04/05Z 04/06Z 04/07Z 04/08Z 04/09Z 04/10Z 04/11Z 04/12Z 04/13Z 04/14Z 04/15Z 04/16Z 04/17Z>>
Type PRVL PRVL PRVL PRVL PRVL PRVL PRVL PRVL PRVL PRVL PRVL PRVL PRVL
VIS >6 >6 >6 >6 >6 >6 >6 >6 >6 >6 >6 >6 >6
CIG 60 60 60 60 60 60 60 60 60 35 35 35 35
Cover BKN BKN BKN BKN BKN BKN BKN BKN BKN BKN BKN BKN BKN
FltCat VFR VFR VFR VFR VFR VFR VFR VFR VFR VFR VFR VFR VFR
WX VCSH VCSH VCSH VCSH VCSH VCSH VCSH VCSH VCSH VCSH VCSH VCSH VCSH
WDir 130 130 130 130 130 130 130 130 130 150 150 150 150
WSpd 6 6 6 6 6 6 6 6 6 8 8 8 8
WGst -- -- -- -- -- -- -- -- -- -- -- -- --
Raw TAF
KMCO 031453Z 0315/0418 12010KT P6SM VCSH SCT025 BKN060
  TEMPO 0317/0321 3SM SHRA BKN030 BKN060
  FM040100 13006KT P6SM VCSH SCT035 BKN060
  FM041400 15008KT P6SM VCSH BKN035


METAR Board
Radar Display
Forecast Discussion
For situational awareness. Not to be used for flight planning purposes.